createdAt,value
2018-06-12T00:01:19.148Z,4.00
2018-06-12T00:03:47.797Z,5.17
2018-06-12T00:06:16.443Z,5.87
2018-06-12T00:08:45.087Z,6.07
2018-06-12T00:11:13.733Z,4.30
2018-06-12T00:13:42.459Z,5.00
2018-06-12T00:16:11.183Z,3.47
2018-06-12T00:18:40.992Z,4.17
2018-06-12T00:21:09.693Z,4.40
2018-06-12T00:23:38.409Z,4.17
2018-06-12T00:26:07.104Z,5.07
2018-06-12T00:28:35.726Z,3.53
2018-06-12T00:31:04.459Z,3.97
2018-06-12T00:33:33.032Z,4.23
2018-06-12T00:36:01.679Z,5.60
2018-06-12T00:38:30.386Z,5.40
2018-06-12T00:40:58.974Z,4.53
2018-06-12T00:43:27.661Z,5.30
2018-06-12T00:45:56.406Z,5.90
2018-06-12T00:48:25.116Z,5.40
2018-06-12T00:50:53.877Z,5.07
2018-06-12T00:53:22.648Z,4.50
2018-06-12T00:55:51.335Z,7.33
2018-06-12T00:58:20.040Z,6.43
2018-06-12T01:00:48.727Z,6.30
2018-06-12T01:03:17.339Z,6.17
2018-06-12T01:05:46.225Z,5.40
2018-06-12T01:08:14.958Z,5.40
2018-06-12T01:10:43.853Z,7.00
2018-06-12T01:13:12.547Z,6.30
2018-06-12T01:15:41.166Z,5.60
2018-06-12T01:18:09.879Z,6.13
2018-06-12T01:20:38.684Z,5.93
2018-06-12T01:23:07.358Z,5.70
2018-06-12T01:25:36.050Z,6.37
2018-06-12T01:28:04.845Z,6.60
2018-06-12T01:30:33.507Z,6.13
2018-06-12T01:33:02.199Z,6.90
2018-06-12T01:35:30.888Z,5.23
2018-06-12T01:37:59.623Z,6.27
2018-06-12T01:40:28.274Z,6.20
2018-06-12T01:42:57.016Z,5.83
2018-06-12T01:45:25.775Z,8.70
2018-06-12T01:47:54.521Z,8.97
2018-06-12T01:50:23.267Z,8.10
2018-06-12T01:52:51.975Z,7.80
2018-06-12T01:55:20.649Z,8.90
2018-06-12T01:57:49.392Z,8.63
2018-06-12T02:00:18.062Z,10.23
2018-06-12T02:02:46.680Z,6.63
2018-06-12T02:05:15.390Z,8.87
2018-06-12T02:07:44.103Z,8.80
2018-06-12T02:10:12.741Z,7.60
2018-06-12T02:12:41.385Z,6.00
2018-06-12T02:15:10.110Z,7.27
2018-06-12T02:17:38.820Z,8.87
2018-06-12T02:20:07.523Z,8.90
2018-06-12T02:22:36.156Z,7.83
2018-06-12T02:25:04.929Z,6.73
2018-06-12T02:27:33.553Z,7.90
2018-06-12T02:30:02.227Z,9.47
2018-06-12T02:32:30.944Z,9.33
2018-06-12T02:34:59.737Z,6.40
2018-06-12T02:37:28.380Z,9.07
2018-06-12T02:39:57.035Z,7.60
2018-06-12T02:42:25.882Z,7.03
2018-06-12T02:44:54.541Z,8.83
2018-06-12T02:47:23.275Z,6.10
2018-06-12T02:49:51.963Z,7.20
2018-06-12T02:52:20.774Z,7.70
2018-06-12T02:54:49.549Z,8.43
2018-06-12T02:57:18.203Z,6.33
2018-06-12T02:59:46.936Z,5.97
2018-06-12T03:02:15.546Z,8.60
2018-06-12T03:04:44.181Z,7.20
2018-06-12T03:07:12.814Z,8.10
2018-06-12T03:09:41.403Z,6.90
2018-06-12T03:12:10.037Z,7.33
2018-06-12T03:14:39.898Z,7.50
2018-06-12T03:17:08.619Z,8.43
2018-06-12T03:19:37.370Z,8.30
2018-06-12T03:22:06.056Z,8.60
2018-06-12T03:24:34.732Z,8.20
2018-06-12T03:27:03.392Z,7.50
2018-06-12T03:29:32.098Z,8.60
2018-06-12T03:32:00.782Z,8.20
2018-06-12T03:34:29.476Z,9.40
2018-06-12T03:36:58.119Z,8.07
2018-06-12T03:39:26.834Z,9.00
2018-06-12T03:41:55.529Z,7.90
2018-06-12T03:44:24.299Z,7.17
2018-06-12T03:46:52.994Z,10.90
2018-06-12T03:49:21.658Z,11.97
2018-06-12T03:51:50.415Z,10.90
2018-06-12T03:54:19.014Z,10.40
2018-06-12T03:56:47.762Z,11.30
2018-06-12T03:59:16.393Z,13.57
2018-06-12T04:01:45.014Z,10.93
2018-06-12T04:04:13.799Z,14.20
2018-06-12T04:06:42.436Z,11.17
2018-06-12T04:09:11.233Z,11.80
2018-06-12T04:11:39.983Z,11.57
2018-06-12T04:14:08.627Z,12.07
2018-06-12T04:16:37.630Z,13.50
2018-06-12T04:19:07.428Z,13.70
2018-06-12T04:21:36.462Z,15.67
2018-06-12T04:24:05.200Z,11.03
2018-06-12T04:26:33.975Z,12.63
2018-06-12T04:29:02.751Z,18.90
2018-06-12T04:31:31.439Z,21.63
2018-06-12T04:34:01.253Z,22.10
2018-06-12T04:36:29.983Z,24.50
2018-06-12T04:38:58.731Z,23.60
2018-06-12T04:41:27.552Z,20.17
2018-06-12T04:43:56.289Z,19.70
2018-06-12T04:46:24.968Z,19.50
2018-06-12T04:48:53.591Z,17.87
2018-06-12T04:51:22.231Z,16.70
2018-06-12T04:53:50.881Z,15.90
2018-06-12T04:56:19.642Z,15.37
2018-06-12T04:58:48.458Z,18.37
2018-06-12T05:01:17.963Z,15.93
2018-06-12T05:03:46.844Z,14.90
2018-06-12T05:06:15.683Z,20.00
2018-06-12T05:08:44.620Z,19.00
2018-06-12T05:11:13.392Z,20.10
2018-06-12T05:13:42.133Z,17.00
2018-06-12T05:16:10.810Z,20.37
2018-06-12T05:18:39.577Z,14.70
2018-06-12T05:21:08.275Z,15.70
2018-06-12T05:23:37.035Z,17.73
2018-06-12T05:26:05.719Z,18.47
2018-06-12T05:28:34.350Z,18.00
2018-06-12T05:31:03.279Z,17.90
2018-06-12T05:33:32.121Z,19.83
2018-06-12T05:36:00.889Z,20.70
2018-06-12T05:38:29.641Z,17.80
2018-06-12T05:40:58.341Z,16.37
2018-06-12T05:43:27.084Z,18.73
2018-06-12T05:45:55.888Z,16.17
2018-06-12T05:48:24.460Z,19.70
2018-06-12T05:50:53.073Z,18.17
2018-06-12T05:53:21.758Z,20.90
2018-06-12T05:55:50.559Z,23.43
2018-06-12T05:58:19.316Z,17.43
2018-06-12T06:00:47.939Z,25.50
2018-06-12T06:03:16.659Z,28.10
2018-06-12T06:05:45.385Z,24.17
2018-06-12T06:08:14.025Z,24.57
2018-06-12T06:10:42.790Z,26.63
2018-06-12T06:13:11.561Z,22.60
2018-06-12T06:15:40.225Z,23.53
2018-06-12T06:18:08.844Z,25.20
2018-06-12T06:20:37.594Z,22.53
2018-06-12T06:23:06.324Z,26.40
2018-06-12T06:25:35.124Z,25.50
2018-06-12T06:28:03.788Z,25.40
2018-06-12T06:30:32.482Z,25.23
2018-06-12T06:33:01.111Z,24.00
2018-06-12T06:35:29.771Z,21.07
2018-06-12T06:37:59.319Z,23.43
2018-06-12T06:40:28.049Z,22.77
2018-06-12T06:42:56.724Z,26.57
2018-06-12T06:45:25.353Z,26.37
2018-06-12T06:47:54.131Z,22.50
2018-06-12T06:50:22.893Z,25.03
2018-06-12T06:52:51.769Z,29.30
2018-06-12T06:55:20.460Z,25.90
2018-06-12T06:57:49.159Z,26.40
2018-06-12T07:00:17.821Z,25.73
2018-06-12T07:02:46.603Z,24.93
2018-06-12T07:05:15.422Z,27.00
2018-06-12T07:07:44.235Z,23.07
2018-06-12T07:10:13.065Z,25.00
2018-06-12T07:12:41.805Z,22.17
2018-06-12T07:15:10.610Z,20.40
2018-06-12T07:17:39.224Z,24.10
2018-06-12T07:20:07.938Z,22.27
2018-06-12T07:22:36.624Z,22.20
2018-06-12T07:25:05.442Z,24.10
2018-06-12T07:27:34.193Z,27.77
2018-06-12T07:30:03.012Z,21.60
2018-06-12T07:32:31.681Z,22.70
2018-06-12T07:35:00.359Z,22.40
2018-06-12T07:37:29.104Z,23.57
2018-06-12T07:39:57.658Z,23.47
2018-06-12T07:42:26.289Z,18.80
2018-06-12T07:44:55.050Z,21.53
2018-06-12T07:47:23.780Z,20.83
2018-06-12T07:49:52.543Z,19.77
2018-06-12T07:52:21.285Z,19.83
2018-06-12T07:54:50.018Z,24.40
2018-06-12T07:57:18.752Z,23.30
2018-06-12T07:59:47.557Z,17.43
2018-06-12T08:02:16.230Z,21.10
2018-06-12T08:04:44.927Z,22.17
2018-06-12T08:07:13.584Z,24.10
2018-06-12T08:09:42.279Z,20.53
2018-06-12T08:12:10.953Z,21.80
2018-06-12T08:14:39.641Z,22.57
2018-06-12T08:17:08.365Z,17.27
2018-06-12T08:19:37.019Z,15.00
2018-06-12T08:22:05.782Z,21.10
2018-06-12T08:24:34.461Z,19.67
2018-06-12T08:27:03.181Z,21.43
2018-06-12T08:29:31.878Z,19.63
2018-06-12T08:32:00.571Z,21.20
2018-06-12T08:34:29.267Z,18.20
2018-06-12T08:36:57.891Z,17.77
2018-06-12T08:39:26.549Z,20.70
2018-06-12T08:41:55.334Z,20.93
2018-06-12T08:44:24.072Z,15.57
2018-06-12T08:46:52.856Z,22.37
2018-06-12T08:49:21.519Z,20.70
2018-06-12T08:51:50.212Z,18.70
2018-06-12T08:54:18.824Z,21.00
2018-06-12T08:56:47.511Z,19.13
2018-06-12T08:59:16.238Z,20.67
2018-06-12T09:01:44.852Z,18.30
2018-06-12T09:04:13.493Z,12.17
2018-06-12T09:06:42.210Z,14.33
2018-06-12T09:09:10.933Z,15.97
2018-06-12T09:11:39.640Z,18.10
2018-06-12T09:14:08.357Z,19.80
2018-06-12T09:16:37.098Z,17.20
2018-06-12T09:19:06.138Z,14.17
2018-06-12T09:21:34.904Z,15.40
2018-06-12T09:24:03.703Z,17.30
2018-06-12T09:26:32.351Z,13.57
2018-06-12T09:29:01.040Z,17.73
2018-06-12T09:31:29.768Z,14.47
2018-06-12T09:33:58.441Z,12.30
2018-06-12T09:36:32.321Z,12.70
2018-06-12T09:39:01.053Z,17.67
2018-06-12T09:41:29.687Z,15.87
2018-06-12T09:43:58.361Z,14.77
2018-06-12T09:46:27.158Z,13.10
2018-06-12T09:48:55.881Z,16.30
2018-06-12T09:51:24.561Z,15.90
2018-06-12T09:53:53.269Z,14.57
2018-06-12T09:56:21.968Z,16.10
2018-06-12T09:58:50.650Z,17.47
2018-06-12T10:01:22.321Z,12.60
2018-06-12T10:03:53.001Z,11.97
2018-06-12T10:06:21.700Z,15.67
2018-06-12T10:08:50.958Z,14.40
2018-06-12T10:11:19.568Z,11.60
2018-06-12T10:13:48.246Z,12.33
2018-06-12T10:16:16.891Z,11.80
2018-06-12T10:18:45.671Z,11.67
2018-06-12T10:21:14.695Z,13.30
2018-06-12T10:23:43.353Z,15.10
2018-06-12T10:26:12.113Z,12.87
2018-06-12T10:28:40.948Z,12.40
2018-06-12T10:31:09.769Z,10.23
2018-06-12T10:33:38.479Z,21.93
2018-06-12T10:36:07.463Z,13.33
2018-06-12T10:38:36.146Z,11.60
2018-06-12T10:41:04.773Z,12.20
2018-06-12T10:43:33.427Z,9.50
2018-06-12T10:46:02.115Z,11.33
2018-06-12T10:48:30.856Z,8.50
2018-06-12T10:50:59.468Z,10.67
2018-06-12T10:53:28.108Z,11.27
2018-06-12T10:55:56.772Z,10.00
2018-06-12T10:58:25.559Z,10.03
2018-06-12T11:00:54.454Z,10.10
2018-06-12T11:03:23.176Z,13.23
2018-06-12T11:05:52.257Z,13.87
2018-06-12T11:08:21.014Z,11.77
2018-06-12T11:10:50.111Z,10.40
2018-06-12T11:13:19.138Z,10.87
2018-06-12T11:15:47.812Z,10.73
2018-06-12T11:18:18.493Z,16.70
2018-06-12T11:20:47.168Z,16.20
2018-06-12T11:23:17.636Z,23.10
2018-06-12T11:25:46.463Z,23.97
2018-06-12T11:28:15.255Z,20.57
2018-06-12T11:30:43.953Z,23.53
2018-06-12T11:33:12.720Z,23.53
2018-06-12T11:35:41.483Z,26.13
2018-06-12T11:38:10.141Z,22.17
2018-06-12T11:40:38.927Z,17.37
2018-06-12T11:43:07.617Z,14.30
2018-06-12T11:48:09.409Z,10.73
2018-06-12T11:50:38.149Z,12.17
2018-06-12T11:53:06.796Z,9.70
2018-06-12T11:55:35.594Z,12.80
2018-06-12T11:58:04.305Z,16.67
2018-06-12T12:00:32.975Z,18.23
2018-06-12T12:03:01.805Z,22.67
2018-06-12T12:05:30.887Z,26.33
2018-06-12T12:07:59.548Z,28.13
2018-06-12T12:10:28.371Z,26.07
2018-06-12T12:12:57.097Z,31.53
2018-06-12T12:15:25.962Z,29.30
2018-06-12T12:17:57.420Z,33.20
2018-06-12T12:20:26.362Z,30.20
2018-06-12T12:22:55.083Z,32.43
2018-06-12T12:25:24.101Z,33.43
2018-06-12T12:27:53.097Z,33.13
2018-06-12T12:30:23.399Z,35.20
2018-06-12T12:32:52.296Z,38.90
2018-06-12T12:35:21.101Z,28.40
2018-06-12T12:37:50.160Z,32.67
2018-06-12T12:40:18.924Z,31.17
2018-06-12T12:42:47.868Z,30.63
2018-06-12T12:45:17.021Z,28.00
2018-06-12T12:47:46.156Z,29.77
2018-06-12T12:50:15.213Z,27.70
2018-06-12T12:52:44.109Z,28.40
2018-06-12T12:55:13.111Z,29.97
2018-06-12T12:57:43.078Z,36.40
2018-06-12T13:00:12.288Z,29.00
2018-06-12T13:02:41.208Z,32.40
2018-06-12T13:05:09.973Z,36.93
2018-06-12T13:07:38.848Z,34.70
2018-06-12T13:10:07.727Z,31.40
2018-06-12T13:12:36.692Z,29.27
2018-06-12T13:15:05.650Z,37.60
2018-06-12T13:17:34.516Z,33.07
2018-06-12T13:20:03.251Z,28.53
2018-06-12T13:22:31.962Z,31.63
2018-06-12T13:25:00.703Z,32.70
2018-06-12T13:27:29.466Z,26.00
2018-06-12T13:29:58.335Z,24.30
2018-06-12T13:32:27.224Z,30.10
2018-06-12T13:34:56.066Z,26.17
2018-06-12T13:37:25.904Z,23.53
2018-06-12T13:39:54.840Z,27.33
2018-06-12T13:42:23.557Z,25.10
2018-06-12T13:44:52.557Z,26.97
2018-06-12T13:47:21.413Z,33.60
2018-06-12T13:49:50.212Z,30.23
2018-06-12T13:52:19.371Z,25.03
2018-06-12T14:00:46.713Z,25.37
2018-06-12T14:03:18.147Z,24.83
2018-06-12T14:05:48.777Z,24.97
2018-06-12T14:08:19.545Z,24.80
2018-06-12T14:10:49.318Z,26.50
2018-06-12T14:13:19.541Z,24.10
2018-06-12T14:15:51.198Z,26.33
2018-06-12T14:18:20.856Z,21.80
2018-06-12T14:20:52.194Z,24.97
2018-06-12T14:23:21.900Z,23.23
2018-06-12T14:25:52.531Z,23.97
2018-06-12T14:28:22.984Z,25.93
2018-06-12T14:30:52.754Z,23.53
2018-06-12T14:33:22.472Z,22.80
2018-06-12T14:35:53.357Z,21.67
2018-06-12T14:38:25.278Z,21.10
2018-06-12T14:40:55.885Z,22.87
2018-06-12T14:43:25.897Z,19.43
2018-06-12T14:45:54.861Z,23.80
2018-06-12T14:48:23.919Z,22.73
2018-06-12T14:50:52.673Z,20.60
2018-06-12T14:53:21.487Z,20.50
2018-06-12T14:55:50.347Z,24.67
2018-06-12T14:58:19.323Z,30.00
2018-06-12T15:00:48.222Z,31.17
2018-06-12T15:03:16.849Z,28.83
2018-06-12T15:05:45.552Z,20.03
2018-06-12T15:08:14.555Z,22.40
2018-06-12T15:10:43.406Z,21.17
2018-06-12T15:13:12.213Z,19.20
2018-06-12T15:15:41.045Z,19.13
2018-06-12T15:18:10.078Z,21.00
2018-06-12T15:20:38.870Z,20.27
2018-06-12T15:23:07.592Z,18.90
2018-06-12T15:25:36.427Z,14.07
2018-06-12T15:28:05.099Z,17.17
2018-06-12T15:30:33.897Z,15.10
2018-06-12T15:33:02.632Z,14.60
2018-06-12T15:35:31.405Z,15.40
2018-06-12T15:38:00.177Z,14.20
2018-06-12T15:40:28.988Z,15.47
2018-06-12T15:42:57.732Z,12.83
2018-06-12T15:45:26.582Z,16.00
2018-06-12T15:47:55.252Z,14.60
2018-06-12T15:50:24.159Z,14.13
2018-06-12T15:52:52.930Z,11.23
2018-06-12T15:55:21.662Z,9.80
2018-06-12T15:57:50.482Z,10.87
2018-06-12T16:00:19.202Z,12.10
2018-06-12T16:02:47.937Z,12.30
2018-06-12T16:05:17.086Z,10.40
2018-06-12T16:07:45.784Z,12.53
2018-06-12T16:10:14.583Z,11.03
2018-06-12T16:12:43.305Z,11.00
2018-06-12T16:15:12.166Z,12.77
2018-06-12T16:17:41.022Z,15.67
2018-06-12T16:20:09.807Z,14.93
2018-06-12T16:22:38.483Z,15.60
2018-06-12T16:25:07.231Z,14.83
2018-06-12T16:27:36.026Z,10.40
2018-06-12T16:30:04.987Z,10.13
2018-06-12T16:32:33.697Z,9.90
2018-06-12T16:35:02.594Z,9.90
2018-06-12T16:37:31.391Z,9.10
2018-06-12T16:40:00.125Z,10.33
2018-06-12T16:42:28.758Z,8.37
2018-06-12T16:44:57.461Z,9.40
2018-06-12T16:47:26.347Z,9.47
2018-06-12T16:49:55.033Z,8.70
2018-06-12T16:52:23.691Z,8.63
2018-06-12T16:54:52.400Z,10.83
2018-06-12T16:57:21.179Z,9.10
2018-06-12T16:59:49.981Z,9.37
2018-06-12T17:02:18.639Z,9.80
2018-06-12T17:04:47.289Z,11.27
2018-06-12T17:07:16.228Z,12.33
2018-06-12T17:09:45.025Z,9.90
2018-06-12T17:12:13.833Z,8.50
2018-06-12T17:14:42.748Z,9.17
2018-06-12T17:17:11.480Z,10.90
2018-06-12T17:19:40.258Z,9.37
2018-06-12T17:22:10.188Z,10.50
2018-06-12T17:24:39.120Z,9.60
2018-06-12T17:27:07.888Z,10.47
2018-06-12T17:29:36.664Z,10.50
2018-06-12T17:32:05.408Z,10.90
2018-06-12T17:34:34.015Z,11.50
2018-06-12T17:37:02.749Z,11.20
2018-06-12T17:39:31.738Z,12.57
2018-06-12T17:42:00.586Z,11.33
2018-06-12T17:44:30.276Z,9.83
2018-06-12T17:46:58.929Z,11.17
2018-06-12T17:49:27.543Z,10.07
2018-06-12T17:51:56.410Z,12.60
2018-06-12T17:54:25.095Z,9.10
2018-06-12T17:56:53.902Z,9.13
2018-06-12T17:59:22.541Z,10.20
2018-06-12T18:01:51.194Z,14.03
2018-06-12T18:04:19.897Z,13.63
2018-06-12T18:06:48.524Z,17.03
2018-06-12T18:09:17.139Z,8.30
2018-06-12T18:11:45.861Z,6.43
2018-06-12T18:14:14.618Z,6.17
2018-06-12T18:16:43.270Z,8.20
2018-06-12T18:19:11.888Z,7.00
2018-06-12T18:21:40.623Z,11.87
2018-06-12T18:24:09.287Z,9.23
2018-06-12T18:26:38.056Z,10.73
2018-06-12T18:29:06.831Z,10.13
2018-06-12T18:31:35.720Z,10.33
2018-06-12T18:34:04.555Z,13.20
2018-06-12T18:36:33.358Z,13.23
2018-06-12T18:39:02.128Z,15.97
2018-06-12T18:41:30.745Z,18.60
2018-06-12T18:43:59.378Z,19.20
2018-06-12T18:46:28.150Z,15.13
2018-06-12T18:48:57.082Z,14.10
2018-06-12T18:51:25.956Z,18.30
2018-06-12T18:53:54.670Z,16.90
2018-06-12T18:56:23.496Z,24.10
2018-06-12T18:58:52.161Z,27.00
2018-06-12T19:01:20.985Z,25.10
2018-06-12T19:03:49.695Z,26.50
2018-06-12T19:06:18.486Z,29.00
2018-06-12T19:08:47.442Z,28.90
2018-06-12T19:11:16.973Z,29.23
2018-06-12T19:13:46.779Z,29.23
2018-06-12T19:16:15.541Z,28.57
2018-06-12T19:18:44.219Z,28.57
2018-06-12T19:21:13.052Z,29.40
2018-06-12T19:23:42.096Z,30.47
2018-06-12T19:26:11.773Z,24.30
2018-06-12T19:28:40.804Z,27.47
2018-06-12T19:31:10.026Z,29.27
2018-06-12T19:33:38.904Z,22.97
2018-06-12T19:36:07.769Z,27.07
2018-06-12T19:38:36.638Z,29.97
2018-06-12T19:41:05.520Z,30.50
2018-06-12T19:43:34.244Z,25.70
2018-06-12T19:46:03.120Z,27.60
2018-06-12T19:48:32.073Z,21.20
2018-06-12T19:51:01.258Z,26.40
2018-06-12T19:53:29.970Z,24.93
2018-06-12T19:55:58.814Z,20.27
2018-06-12T19:58:27.790Z,25.33
2018-06-12T20:00:56.707Z,20.77
2018-06-12T20:03:25.720Z,23.40
2018-06-12T20:05:54.748Z,23.90
2018-06-12T20:08:23.673Z,26.17
2018-06-12T20:10:52.663Z,27.07
2018-06-12T20:13:21.557Z,28.57
2018-06-12T20:15:50.463Z,28.30
2018-06-12T20:18:19.252Z,24.27
2018-06-12T20:20:48.060Z,27.77
2018-06-12T20:23:16.748Z,25.27
2018-06-12T20:25:45.605Z,27.10
2018-06-12T20:28:14.367Z,28.23
2018-06-12T20:30:43.156Z,25.00
2018-06-12T20:33:12.071Z,25.70
2018-06-12T20:35:40.977Z,28.77
2018-06-12T20:38:09.837Z,24.53
2018-06-12T20:40:38.731Z,25.30
2018-06-12T20:43:07.710Z,28.77
2018-06-12T20:45:36.613Z,28.20
2018-06-12T20:48:05.493Z,30.03
2018-06-12T20:50:34.225Z,29.53
2018-06-12T20:53:03.022Z,28.87
2018-06-12T20:55:31.880Z,28.97
2018-06-12T20:58:00.735Z,29.20
2018-06-12T21:00:29.494Z,28.50
2018-06-12T21:02:58.246Z,27.80
2018-06-12T21:05:27.327Z,26.67
2018-06-12T21:07:56.173Z,25.50
2018-06-12T21:10:24.950Z,22.70
2018-06-12T21:12:53.839Z,19.57
2018-06-12T21:15:22.443Z,20.90
2018-06-12T21:17:51.210Z,21.47
2018-06-12T21:20:19.834Z,20.47
2018-06-12T21:22:48.473Z,19.17
2018-06-12T21:25:17.091Z,18.83
2018-06-12T21:27:45.802Z,16.83
2018-06-12T21:30:14.503Z,20.43
2018-06-12T21:32:43.173Z,17.63
2018-06-12T21:35:11.891Z,16.67
2018-06-12T21:37:40.652Z,17.00
2018-06-12T21:40:09.270Z,17.03
2018-06-12T21:42:38.021Z,16.80
2018-06-12T21:45:06.873Z,16.77
2018-06-12T21:47:35.542Z,16.30
2018-06-12T21:50:04.391Z,15.17
2018-06-12T21:52:33.098Z,16.00
2018-06-12T21:55:01.710Z,16.23
2018-06-12T21:57:30.370Z,15.80
2018-06-12T21:59:59.029Z,13.90
2018-06-12T22:02:27.832Z,15.10
2018-06-12T22:04:56.573Z,15.70
2018-06-12T22:07:25.574Z,14.23
2018-06-12T22:09:54.333Z,14.20
2018-06-12T22:12:23.246Z,14.57
2018-06-12T22:14:52.015Z,14.03
2018-06-12T22:17:20.679Z,12.03
2018-06-12T22:19:49.264Z,12.50
2018-06-12T22:22:17.989Z,12.37
2018-06-12T22:24:46.671Z,12.70
2018-06-12T22:27:15.337Z,13.57
2018-06-12T22:29:44.033Z,13.23
2018-06-12T22:32:12.668Z,13.67
2018-06-12T22:34:41.331Z,14.90
2018-06-12T22:37:10.205Z,16.20
2018-06-12T22:39:39.120Z,14.50
2018-06-12T22:42:08.005Z,15.30
2018-06-12T22:44:36.734Z,15.10
2018-06-12T22:47:05.732Z,15.37
2018-06-12T22:49:34.545Z,14.53
2018-06-12T22:52:03.254Z,15.77
2018-06-12T22:54:32.073Z,14.93
2018-06-12T22:57:00.630Z,17.30
2018-06-12T22:59:29.349Z,16.43
2018-06-12T23:01:58.029Z,15.47
2018-06-12T23:04:26.690Z,17.30
2018-06-12T23:06:55.371Z,16.13
2018-06-12T23:09:24.000Z,14.60
2018-06-12T23:11:52.743Z,15.60
2018-06-12T23:14:21.445Z,15.60
2018-06-12T23:16:50.184Z,15.27
2018-06-12T23:19:18.910Z,14.70
2018-06-12T23:22:03.058Z,16.23
2018-06-12T23:24:31.775Z,12.30
2018-06-12T23:27:00.394Z,14.60
2018-06-12T23:29:29.111Z,13.90
2018-06-12T23:31:57.766Z,12.93
2018-06-12T23:34:26.464Z,14.60
2018-06-12T23:36:55.295Z,13.03
2018-06-12T23:39:24.079Z,12.30
2018-06-12T23:41:52.799Z,12.70
2018-06-12T23:44:21.435Z,12.97
2018-06-12T23:46:50.221Z,11.63
2018-06-12T23:49:18.958Z,12.27
2018-06-12T23:51:47.837Z,13.17
2018-06-12T23:54:16.654Z,11.60
2018-06-12T23:56:45.424Z,12.13
2018-06-12T23:59:14.174Z,12.23
